sensor_id;sensor_type;location;lat;lon;timestamp;pressure;altitude;pressure_sealevel;temperature;humidity
59686;BME280;45554;51.096;16.976;2023-10-09T00:00:08;101035.08;;;8.13;74.09
59686;BME280;45554;51.096;16.976;2023-10-09T00:03:19;101040.39;;;8.10;74.23
59686;BME280;45554;51.096;16.976;2023-10-09T00:05:51;101031.73;;;8.08;74.35
59686;BME280;45554;51.096;16.976;2023-10-09T00:08:21;101021.85;;;8.05;74.52
59686;BME280;45554;51.096;16.976;2023-10-09T00:10:51;101013.90;;;8.03;74.61
59686;BME280;45554;51.096;16.976;2023-10-09T00:13:24;101019.04;;;8.01;74.79
59686;BME280;45554;51.096;16.976;2023-10-09T00:16:05;101008.63;;;7.98;74.77
59686;BME280;45554;51.096;16.976;2023-10-09T00:18:42;100987.60;;;7.96;74.80
59686;BME280;45554;51.096;16.976;2023-10-09T00:21:19;100995.03;;;7.93;74.93
59686;BME280;45554;51.096;16.976;2023-10-09T00:23:48;100998.43;;;7.90;75.27
59686;BME280;45554;51.096;16.976;2023-10-09T00:26:21;100994.60;;;7.90;75.26
59686;BME280;45554;51.096;16.976;2023-10-09T00:28:51;100985.79;;;7.87;75.65
59686;BME280;45554;51.096;16.976;2023-10-09T00:31:19;100972.59;;;7.86;75.81
59686;BME280;45554;51.096;16.976;2023-10-09T00:34:17;100967.23;;;7.83;75.86
59686;BME280;45554;51.096;16.976;2023-10-09T00:36:50;100964.85;;;7.82;75.65
59686;BME280;45554;51.096;16.976;2023-10-09T00:39:20;100971.55;;;7.79;75.49
59686;BME280;45554;51.096;16.976;2023-10-09T00:42:03;100972.62;;;7.78;75.72
59686;BME280;45554;51.096;16.976;2023-10-09T00:44:34;100980.86;;;7.77;75.60
59686;BME280;45554;51.096;16.976;2023-10-09T00:47:07;100985.42;;;7.77;75.79
59686;BME280;45554;51.096;16.976;2023-10-09T00:49:54;100987.48;;;7.78;75.85
59686;BME280;45554;51.096;16.976;2023-10-09T00:52:32;100988.36;;;7.77;75.80
59686;BME280;45554;51.096;16.976;2023-10-09T00:55:18;100983.05;;;7.80;75.99
59686;BME280;45554;51.096;16.976;2023-10-09T00:57:55;100981.95;;;7.82;76.08
59686;BME280;45554;51.096;16.976;2023-10-09T01:00:38;100968.48;;;7.83;76.08
59686;BME280;45554;51.096;16.976;2023-10-09T01:03:16;100960.77;;;7.84;76.08
59686;BME280;45554;51.096;16.976;2023-10-09T01:06:01;100952.77;;;7.82;76.31
59686;BME280;45554;51.096;16.976;2023-10-09T01:08:45;100955.54;;;7.84;76.41
59686;BME280;45554;51.096;16.976;2023-10-09T01:11:16;100951.01;;;7.83;76.55
59686;BME280;45554;51.096;16.976;2023-10-09T01:13:49;100948.07;;;7.82;76.60
59686;BME280;45554;51.096;16.976;2023-10-09T01:16:23;100951.04;;;7.82;76.57
59686;BME280;45554;51.096;16.976;2023-10-09T01:18:53;100950.89;;;7.81;76.35
59686;BME280;45554;51.096;16.976;2023-10-09T01:21:26;100944.45;;;7.81;76.53
59686;BME280;45554;51.096;16.976;2023-10-09T01:24:00;100942.02;;;7.81;76.71
59686;BME280;45554;51.096;16.976;2023-10-09T01:26:39;100941.46;;;7.81;76.60
59686;BME280;45554;51.096;16.976;2023-10-09T01:29:20;100930.33;;;7.80;76.61
59686;BME280;45554;51.096;16.976;2023-10-09T01:31:52;100935.61;;;7.79;76.60
59686;BME280;45554;51.096;16.976;2023-10-09T01:34:31;100943.00;;;7.77;76.72
59686;BME280;45554;51.096;16.976;2023-10-09T01:37:20;100929.06;;;7.77;76.85
59686;BME280;45554;51.096;16.976;2023-10-09T01:39:55;100925.80;;;7.76;76.88
59686;BME280;45554;51.096;16.976;2023-10-09T01:42:50;100924.46;;;7.73;76.89
59686;BME280;45554;51.096;16.976;2023-10-09T01:45:18;100924.48;;;7.73;77.01
59686;BME280;45554;51.096;16.976;2023-10-09T01:47:46;100926.38;;;7.73;77.10
59686;BME280;45554;51.096;16.976;2023-10-09T01:50:21;100924.13;;;7.73;77.24
59686;BME280;45554;51.096;16.976;2023-10-09T01:52:52;100911.58;;;7.72;77.35
59686;BME280;45554;51.096;16.976;2023-10-09T01:55:20;100915.59;;;7.72;77.46
59686;BME280;45554;51.096;16.976;2023-10-09T01:58:08;100908.81;;;7.72;77.48
59686;BME280;45554;51.096;16.976;2023-10-09T02:00:51;100902.91;;;7.71;77.49
59686;BME280;45554;51.096;16.976;2023-10-09T02:03:24;100896.31;;;7.70;77.69
59686;BME280;45554;51.096;16.976;2023-10-09T02:05:55;100890.04;;;7.69;77.72
59686;BME280;45554;51.096;16.976;2023-10-09T02:08:32;100889.67;;;7.70;77.95
59686;BME280;45554;51.096;16.976;2023-10-09T02:11:03;100887.02;;;7.71;78.11
59686;BME280;45554;51.096;16.976;2023-10-09T02:13:31;100880.04;;;7.71;78.11
59686;BME280;45554;51.096;16.976;2023-10-09T02:16:03;100865.58;;;7.71;77.96
59686;BME280;45554;51.096;16.976;2023-10-09T02:18:41;100858.45;;;7.70;77.94
59686;BME280;45554;51.096;16.976;2023-10-09T02:21:22;100843.27;;;7.69;78.01
59686;BME280;45554;51.096;16.976;2023-10-09T02:23:58;100841.35;;;7.69;78.05
59686;BME280;45554;51.096;16.976;2023-10-09T02:26:31;100831.25;;;7.69;77.99
59686;BME280;45554;51.096;16.976;2023-10-09T02:29:28;100825.16;;;7.68;77.90
59686;BME280;45554;51.096;16.976;2023-10-09T02:31:57;100819.91;;;7.68;77.87
59686;BME280;45554;51.096;16.976;2023-10-09T02:34:29;100812.92;;;7.69;77.74
59686;BME280;45554;51.096;16.976;2023-10-09T02:36:58;100816.24;;;7.69;77.75
59686;BME280;45554;51.096;16.976;2023-10-09T02:39:32;100823.39;;;7.69;77.76
59686;BME280;45554;51.096;16.976;2023-10-09T02:42:05;100824.98;;;7.69;77.57
59686;BME280;45554;51.096;16.976;2023-10-09T02:44:51;100817.67;;;7.68;77.52
59686;BME280;45554;51.096;16.976;2023-10-09T02:47:21;100817.88;;;7.67;77.69
59686;BME280;45554;51.096;16.976;2023-10-09T02:49:53;100805.22;;;7.65;77.77
59686;BME280;45554;51.096;16.976;2023-10-09T02:52:28;100801.57;;;7.64;77.85
59686;BME280;45554;51.096;16.976;2023-10-09T02:55:01;100801.23;;;7.64;77.79
59686;BME280;45554;51.096;16.976;2023-10-09T02:57:36;100793.75;;;7.64;77.84
59686;BME280;45554;51.096;16.976;2023-10-09T03:00:05;100796.87;;;7.64;77.96
59686;BME280;45554;51.096;16.976;2023-10-09T03:02:37;100803.14;;;7.64;78.15
59686;BME280;45554;51.096;16.976;2023-10-09T03:05:08;100804.14;;;7.66;78.30
59686;BME280;45554;51.096;16.976;2023-10-09T03:07:40;100802.88;;;7.67;78.17
59686;BME280;45554;51.096;16.976;2023-10-09T03:10:09;100802.83;;;7.68;78.22
59686;BME280;45554;51.096;16.976;2023-10-09T03:12:37;100801.59;;;7.69;78.20
59686;BME280;45554;51.096;16.976;2023-10-09T03:15:08;100795.31;;;7.69;78.20
59686;BME280;45554;51.096;16.976;2023-10-09T03:17:37;100790.77;;;7.69;78.28
59686;BME280;45554;51.096;16.976;2023-10-09T03:20:06;100789.84;;;7.71;78.63
59686;BME280;45554;51.096;16.976;2023-10-09T03:22:42;100794.02;;;7.72;78.79
59686;BME280;45554;51.096;16.976;2023-10-09T03:25:11;100793.87;;;7.71;79.10
59686;BME280;45554;51.096;16.976;2023-10-09T03:27:43;100783.92;;;7.71;79.43
59686;BME280;45554;51.096;16.976;2023-10-09T03:30:15;100784.73;;;7.73;79.83
59686;BME280;45554;51.096;16.976;2023-10-09T03:32:52;100776.54;;;7.72;79.73
59686;BME280;45554;51.096;16.976;2023-10-09T03:35:22;100768.92;;;7.70;79.98
59686;BME280;45554;51.096;16.976;2023-10-09T03:37:57;100767.91;;;7.69;79.94
59686;BME280;45554;51.096;16.976;2023-10-09T03:40:29;100759.18;;;7.69;80.01
59686;BME280;45554;51.096;16.976;2023-10-09T03:42:56;100751.04;;;7.68;80.34
59686;BME280;45554;51.096;16.976;2023-10-09T03:45:25;100747.79;;;7.66;80.49
59686;BME280;45554;51.096;16.976;2023-10-09T03:47:55;100742.11;;;7.64;80.79
59686;BME280;45554;51.096;16.976;2023-10-09T03:50:44;100715.80;;;7.58;80.96
59686;BME280;45554;51.096;16.976;2023-10-09T03:53:14;100716.97;;;7.60;81.08
59686;BME280;45554;51.096;16.976;2023-10-09T03:55:42;100713.23;;;7.57;81.34
59686;BME280;45554;51.096;16.976;2023-10-09T03:58:10;100701.56;;;7.51;81.47
59686;BME280;45554;51.096;16.976;2023-10-09T04:00:40;100699.90;;;7.49;81.73
59686;BME280;45554;51.096;16.976;2023-10-09T04:03:15;100689.05;;;7.45;81.92
59686;BME280;45554;51.096;16.976;2023-10-09T04:05:45;100681.80;;;7.43;82.15
59686;BME280;45554;51.096;16.976;2023-10-09T04:08:13;100679.30;;;7.39;82.47
59686;BME280;45554;51.096;16.976;2023-10-09T04:10:48;100679.86;;;7.38;82.83
59686;BME280;45554;51.096;16.976;2023-10-09T04:13:21;100674.55;;;7.36;82.86
59686;BME280;45554;51.096;16.976;2023-10-09T04:16:02;100666.40;;;7.35;83.13
59686;BME280;45554;51.096;16.976;2023-10-09T04:18:38;100658.45;;;7.32;83.20
59686;BME280;45554;51.096;16.976;2023-10-09T04:21:08;100661.80;;;7.32;83.14
59686;BME280;45554;51.096;16.976;2023-10-09T04:24:06;100652.66;;;7.29;83.27
59686;BME280;45554;51.096;16.976;2023-10-09T04:26:42;100650.45;;;7.27;83.43
59686;BME280;45554;51.096;16.976;2023-10-09T04:29:15;100648.59;;;7.25;83.65
59686;BME280;45554;51.096;16.976;2023-10-09T04:31:57;100640.48;;;7.23;83.68
59686;BME280;45554;51.096;16.976;2023-10-09T04:34:28;100642.98;;;7.21;84.07
59686;BME280;45554;51.096;16.976;2023-10-09T04:36:57;100640.23;;;7.20;84.04
59686;BME280;45554;51.096;16.976;2023-10-09T04:39:29;100638.70;;;7.19;84.27
59686;BME280;45554;51.096;16.976;2023-10-09T04:41:57;100641.38;;;7.17;84.38
59686;BME280;45554;51.096;16.976;2023-10-09T04:44:45;100658.52;;;7.15;84.79
59686;BME280;45554;51.096;16.976;2023-10-09T04:47:35;100667.42;;;7.15;84.78
59686;BME280;45554;51.096;16.976;2023-10-09T04:50:09;100666.42;;;7.14;84.94
59686;BME280;45554;51.096;16.976;2023-10-09T04:52:46;100672.70;;;7.13;85.15
59686;BME280;45554;51.096;16.976;2023-10-09T04:55:17;100677.59;;;7.13;85.41
59686;BME280;45554;51.096;16.976;2023-10-09T04:57:52;100679.70;;;7.13;85.63
59686;BME280;45554;51.096;16.976;2023-10-09T05:00:30;100685.44;;;7.13;85.99
59686;BME280;45554;51.096;16.976;2023-10-09T05:03:02;100685.11;;;7.12;86.13
59686;BME280;45554;51.096;16.976;2023-10-09T05:05:42;100680.63;;;7.11;86.30
59686;BME280;45554;51.096;16.976;2023-10-09T05:08:13;100677.23;;;7.14;86.44
59686;BME280;45554;51.096;16.976;2023-10-09T05:11:01;100678.09;;;7.14;86.87
59686;BME280;45554;51.096;16.976;2023-10-09T05:13:33;100671.98;;;7.14;87.07
59686;BME280;45554;51.096;16.976;2023-10-09T05:16:17;100671.48;;;7.13;87.16
59686;BME280;45554;51.096;16.976;2023-10-09T05:18:56;100671.10;;;7.14;87.43
59686;BME280;45554;51.096;16.976;2023-10-09T05:21:39;100665.73;;;7.13;87.59
59686;BME280;45554;51.096;16.976;2023-10-09T05:24:19;100667.86;;;7.12;87.80
59686;BME280;45554;51.096;16.976;2023-10-09T05:27:15;100666.10;;;7.13;87.91
59686;BME280;45554;51.096;16.976;2023-10-09T05:29:45;100665.23;;;7.12;88.16
59686;BME280;45554;51.096;16.976;2023-10-09T05:32:27;100659.48;;;7.12;88.47
59686;BME280;45554;51.096;16.976;2023-10-09T05:35:03;100654.61;;;7.12;88.59
59686;BME280;45554;51.096;16.976;2023-10-09T05:37:33;100652.54;;;7.12;88.80
59686;BME280;45554;51.096;16.976;2023-10-09T05:40:04;100645.44;;;7.11;88.77
59686;BME280;45554;51.096;16.976;2023-10-09T05:42:47;100629.27;;;7.09;88.76
59686;BME280;45554;51.096;16.976;2023-10-09T05:45:26;100627.90;;;7.09;88.85
59686;BME280;45554;51.096;16.976;2023-10-09T05:48:14;100633.85;;;7.08;88.88
59686;BME280;45554;51.096;16.976;2023-10-09T05:50:45;100630.85;;;7.09;89.30
59686;BME280;45554;51.096;16.976;2023-10-09T05:53:32;100625.96;;;7.09;89.46
59686;BME280;45554;51.096;16.976;2023-10-09T05:56:12;100614.99;;;7.09;89.42
59686;BME280;45554;51.096;16.976;2023-10-09T05:58:56;100604.35;;;7.09;89.72
59686;BME280;45554;51.096;16.976;2023-10-09T06:01:43;100592.48;;;7.09;89.71
59686;BME280;45554;51.096;16.976;2023-10-09T06:04:26;100586.02;;;7.10;89.82
59686;BME280;45554;51.096;16.976;2023-10-09T06:07:15;100578.02;;;7.09;89.70
59686;BME280;45554;51.096;16.976;2023-10-09T06:09:54;100570.73;;;7.09;89.64
59686;BME280;45554;51.096;16.976;2023-10-09T06:12:25;100565.02;;;7.08;89.73
59686;BME280;45554;51.096;16.976;2023-10-09T06:15:00;100560.85;;;7.07;89.73
59686;BME280;45554;51.096;16.976;2023-10-09T06:17:47;100560.81;;;7.08;89.71
59686;BME280;45554;51.096;16.976;2023-10-09T06:20:21;100548.05;;;7.09;89.92
59686;BME280;45554;51.096;16.976;2023-10-09T06:23:18;100541.69;;;7.12;90.34
59686;BME280;45554;51.096;16.976;2023-10-09T06:25:51;100540.16;;;7.16;90.72
59686;BME280;45554;51.096;16.976;2023-10-09T06:28:19;100526.41;;;7.20;90.70
59686;BME280;45554;51.096;16.976;2023-10-09T06:31:01;100516.46;;;7.25;90.81
59686;BME280;45554;51.096;16.976;2023-10-09T06:33:49;100511.77;;;7.28;90.72
59686;BME280;45554;51.096;16.976;2023-10-09T06:36:44;100517.77;;;7.32;90.66
59686;BME280;45554;51.096;16.976;2023-10-09T06:39:21;100518.23;;;7.34;90.65
59686;BME280;45554;51.096;16.976;2023-10-09T06:42:28;100525.43;;;7.37;90.78
59686;BME280;45554;51.096;16.976;2023-10-09T06:45:15;100514.95;;;7.37;90.86
59686;BME280;45554;51.096;16.976;2023-10-09T06:47:49;100502.20;;;7.38;90.89
59686;BME280;45554;51.096;16.976;2023-10-09T06:50:24;100492.99;;;7.37;90.93
59686;BME280;45554;51.096;16.976;2023-10-09T06:52:54;100494.09;;;7.40;91.11
59686;BME280;45554;51.096;16.976;2023-10-09T06:55:26;100499.52;;;7.44;91.25
59686;BME280;45554;51.096;16.976;2023-10-09T06:58:03;100504.42;;;7.48;91.29
59686;BME280;45554;51.096;16.976;2023-10-09T07:00:55;100503.95;;;7.51;91.37
59686;BME280;45554;51.096;16.976;2023-10-09T07:03:28;100497.58;;;7.54;91.47
59686;BME280;45554;51.096;16.976;2023-10-09T07:06:11;100487.85;;;7.58;91.30
59686;BME280;45554;51.096;16.976;2023-10-09T07:08:55;100496.77;;;7.61;91.37
59686;BME280;45554;51.096;16.976;2023-10-09T07:11:41;100494.33;;;7.66;91.64
59686;BME280;45554;51.096;16.976;2023-10-09T07:17:02;100485.35;;;7.73;91.59
59686;BME280;45554;51.096;16.976;2023-10-09T07:19:44;100483.29;;;7.76;91.53
59686;BME280;45554;51.096;16.976;2023-10-09T07:22:15;100471.35;;;7.78;91.61
59686;BME280;45554;51.096;16.976;2023-10-09T07:30:13;100463.29;;;7.92;91.22
59686;BME280;45554;51.096;16.976;2023-10-09T07:33:07;100464.86;;;7.96;91.37
59686;BME280;45554;51.096;16.976;2023-10-09T07:35:46;100465.93;;;8.00;91.42
59686;BME280;45554;51.096;16.976;2023-10-09T07:38:19;100464.23;;;8.03;91.04
59686;BME280;45554;51.096;16.976;2023-10-09T07:40:50;100462.23;;;8.01;91.03
59686;BME280;45554;51.096;16.976;2023-10-09T07:43:47;100460.67;;;8.04;91.30
59686;BME280;45554;51.096;16.976;2023-10-09T07:46:18;100460.69;;;8.08;91.29
59686;BME280;45554;51.096;16.976;2023-10-09T07:49:03;100466.08;;;8.13;91.03
59686;BME280;45554;51.096;16.976;2023-10-09T07:51:38;100470.06;;;8.14;90.91
59686;BME280;45554;51.096;16.976;2023-10-09T07:54:11;100462.08;;;8.17;90.89
59686;BME280;45554;51.096;16.976;2023-10-09T07:56:43;100455.46;;;8.20;90.99
59686;BME280;45554;51.096;16.976;2023-10-09T07:59:15;100453.33;;;8.26;91.01
59686;BME280;45554;51.096;16.976;2023-10-09T08:01:49;100449.45;;;8.30;90.98
59686;BME280;45554;51.096;16.976;2023-10-09T08:04:24;100449.83;;;8.34;90.82
59686;BME280;45554;51.096;16.976;2023-10-09T08:07:10;100449.33;;;8.37;90.83
59686;BME280;45554;51.096;16.976;2023-10-09T08:10:13;100445.65;;;8.46;90.91
59686;BME280;45554;51.096;16.976;2023-10-09T08:12:47;100448.86;;;8.53;90.92
59686;BME280;45554;51.096;16.976;2023-10-09T08:15:18;100452.71;;;8.61;90.85
59686;BME280;45554;51.096;16.976;2023-10-09T08:20:26;100444.65;;;8.74;90.59
59686;BME280;45554;51.096;16.976;2023-10-09T08:22:55;100432.81;;;8.84;90.77
59686;BME280;45554;51.096;16.976;2023-10-09T08:25:25;100417.92;;;8.93;90.27
59686;BME280;45554;51.096;16.976;2023-10-09T08:27:59;100404.61;;;9.01;90.13
59686;BME280;45554;51.096;16.976;2023-10-09T08:30:57;100396.17;;;9.17;90.05
59686;BME280;45554;51.096;16.976;2023-10-09T08:33:24;100393.45;;;9.30;89.67
59686;BME280;45554;51.096;16.976;2023-10-09T08:35:58;100401.52;;;9.38;88.69
59686;BME280;45554;51.096;16.976;2023-10-09T08:38:36;100412.62;;;9.39;88.67
59686;BME280;45554;51.096;16.976;2023-10-09T08:41:09;100412.21;;;9.41;88.54
59686;BME280;45554;51.096;16.976;2023-10-09T08:43:53;100413.22;;;9.38;88.28
59686;BME280;45554;51.096;16.976;2023-10-09T08:46:27;100415.73;;;9.36;88.26
59686;BME280;45554;51.096;16.976;2023-10-09T08:48:57;100409.64;;;9.36;88.23
59686;BME280;45554;51.096;16.976;2023-10-09T08:51:28;100404.23;;;9.31;87.37
59686;BME280;45554;51.096;16.976;2023-10-09T08:53:57;100401.53;;;9.26;87.67
59686;BME280;45554;51.096;16.976;2023-10-09T08:56:26;100403.14;;;9.25;87.90
59686;BME280;45554;51.096;16.976;2023-10-09T08:58:56;100394.28;;;9.20;87.87
59686;BME280;45554;51.096;16.976;2023-10-09T09:01:25;100397.45;;;9.23;88.03
59686;BME280;45554;51.096;16.976;2023-10-09T09:03:54;100401.73;;;9.25;88.14
59686;BME280;45554;51.096;16.976;2023-10-09T09:06:36;100405.73;;;9.26;88.04
59686;BME280;45554;51.096;16.976;2023-10-09T09:09:12;100407.83;;;9.26;88.21
59686;BME280;45554;51.096;16.976;2023-10-09T09:11:46;100411.94;;;9.24;87.64
59686;BME280;45554;51.096;16.976;2023-10-09T09:14:17;100411.21;;;9.21;87.77
59686;BME280;45554;51.096;16.976;2023-10-09T09:16:50;100420.07;;;9.18;87.45
59686;BME280;45554;51.096;16.976;2023-10-09T09:19:31;100419.44;;;9.13;87.54
59686;BME280;45554;51.096;16.976;2023-10-09T09:22:00;100426.77;;;9.10;87.28
59686;BME280;45554;51.096;16.976;2023-10-09T09:24:40;100434.07;;;9.07;87.32
59686;BME280;45554;51.096;16.976;2023-10-09T09:27:45;100433.83;;;9.08;87.72
59686;BME280;45554;51.096;16.976;2023-10-09T09:30:28;100433.85;;;9.08;87.15
59686;BME280;45554;51.096;16.976;2023-10-09T09:33:20;100426.98;;;9.01;86.89
59686;BME280;45554;51.096;16.976;2023-10-09T09:35:58;100419.45;;;8.98;86.79
59686;BME280;45554;51.096;16.976;2023-10-09T09:38:26;100412.97;;;8.98;87.07
59686;BME280;45554;51.096;16.976;2023-10-09T09:40:56;100413.91;;;9.00;87.36
59686;BME280;45554;51.096;16.976;2023-10-09T09:43:25;100411.34;;;9.03;87.06
59686;BME280;45554;51.096;16.976;2023-10-09T09:45:56;100415.30;;;9.04;87.27
59686;BME280;45554;51.096;16.976;2023-10-09T09:48:30;100421.94;;;9.04;87.39
59686;BME280;45554;51.096;16.976;2023-10-09T09:51:00;100415.73;;;9.06;87.57
59686;BME280;45554;51.096;16.976;2023-10-09T09:53:35;100401.83;;;9.04;87.30
59686;BME280;45554;51.096;16.976;2023-10-09T09:56:04;100401.75;;;9.06;87.78
59686;BME280;45554;51.096;16.976;2023-10-09T09:58:34;100411.48;;;9.11;87.75
59686;BME280;45554;51.096;16.976;2023-10-09T10:01:13;100409.88;;;9.16;88.00
59686;BME280;45554;51.096;16.976;2023-10-09T10:03:47;100415.13;;;9.19;87.67
59686;BME280;45554;51.096;16.976;2023-10-09T10:06:19;100412.46;;;9.20;87.41
59686;BME280;45554;51.096;16.976;2023-10-09T10:08:48;100400.14;;;9.22;86.76
59686;BME280;45554;51.096;16.976;2023-10-09T10:11:45;100387.46;;;9.24;86.81
59686;BME280;45554;51.096;16.976;2023-10-09T10:14:14;100370.80;;;9.32;87.05
59686;BME280;45554;51.096;16.976;2023-10-09T10:17:06;100363.57;;;9.44;86.85
59686;BME280;45554;51.096;16.976;2023-10-09T10:25:45;100380.34;;;9.66;85.67
59686;BME280;45554;51.096;16.976;2023-10-09T10:28:28;100375.71;;;9.68;85.63
59686;BME280;45554;51.096;16.976;2023-10-09T10:31:08;100373.56;;;9.76;85.71
59686;BME280;45554;51.096;16.976;2023-10-09T10:36:26;100375.78;;;9.88;85.56
59686;BME280;45554;51.096;16.976;2023-10-09T10:39:08;100374.59;;;9.90;85.05
59686;BME280;45554;51.096;16.976;2023-10-09T10:41:56;100383.64;;;9.92;85.12
59686;BME280;45554;51.096;16.976;2023-10-09T10:44:30;100387.09;;;9.93;85.10
59686;BME280;45554;51.096;16.976;2023-10-09T10:47:09;100381.35;;;9.92;84.75
59686;BME280;45554;51.096;16.976;2023-10-09T10:49:52;100381.67;;;9.93;84.48
59686;BME280;45554;51.096;16.976;2023-10-09T10:52:27;100382.37;;;9.96;84.65
59686;BME280;45554;51.096;16.976;2023-10-09T10:55:12;100374.98;;;10.00;84.68
59686;BME280;45554;51.096;16.976;2023-10-09T10:58:16;100376.19;;;10.04;84.07
59686;BME280;45554;51.096;16.976;2023-10-09T11:00:55;100371.27;;;10.04;84.07
59686;BME280;45554;51.096;16.976;2023-10-09T11:03:26;100373.70;;;10.08;84.22
59686;BME280;45554;51.096;16.976;2023-10-09T11:06:12;100375.39;;;10.13;83.64
59686;BME280;45554;51.096;16.976;2023-10-09T11:08:47;100378.62;;;10.14;83.64
59686;BME280;45554;51.096;16.976;2023-10-09T11:11:23;100378.70;;;10.16;83.60
59686;BME280;45554;51.096;16.976;2023-10-09T11:14:11;100376.60;;;10.16;83.45
59686;BME280;45554;51.096;16.976;2023-10-09T11:16:44;100370.83;;;10.16;83.04
59686;BME280;45554;51.096;16.976;2023-10-09T11:19:21;100373.40;;;10.18;83.23
59686;BME280;45554;51.096;16.976;2023-10-09T11:21:57;100372.00;;;10.18;82.95
59686;BME280;45554;51.096;16.976;2023-10-09T11:24:48;100363.24;;;10.27;82.73
59686;BME280;45554;51.096;16.976;2023-10-09T11:27:29;100360.73;;;10.39;82.96
59686;BME280;45554;51.096;16.976;2023-10-09T11:30:00;100360.05;;;10.49;82.44
59686;BME280;45554;51.096;16.976;2023-10-09T11:32:48;100350.51;;;10.57;82.54
59686;BME280;45554;51.096;16.976;2023-10-09T11:35:17;100341.63;;;10.66;82.36
59686;BME280;45554;51.096;16.976;2023-10-09T11:37:58;100347.69;;;10.73;82.14
59686;BME280;45554;51.096;16.976;2023-10-09T11:40:33;100342.59;;;10.80;81.76
59686;BME280;45554;51.096;16.976;2023-10-09T11:43:19;100347.92;;;10.82;81.41
59686;BME280;45554;51.096;16.976;2023-10-09T11:46:13;100350.37;;;10.79;81.04
59686;BME280;45554;51.096;16.976;2023-10-09T11:49:09;100340.29;;;10.75;80.66
59686;BME280;45554;51.096;16.976;2023-10-09T11:52:06;100336.66;;;10.77;81.32
59686;BME280;45554;51.096;16.976;2023-10-09T11:54:58;100342.03;;;10.81;80.85
59686;BME280;45554;51.096;16.976;2023-10-09T11:57:26;100340.35;;;10.86;81.03
59686;BME280;45554;51.096;16.976;2023-10-09T12:00:04;100341.42;;;10.95;81.13
59686;BME280;45554;51.096;16.976;2023-10-09T12:02:51;100342.58;;;11.03;80.98
59686;BME280;45554;51.096;16.976;2023-10-09T12:05:21;100349.45;;;11.09;80.53
59686;BME280;45554;51.096;16.976;2023-10-09T12:07:49;100345.63;;;11.14;80.00
59686;BME280;45554;51.096;16.976;2023-10-09T12:10:25;100349.41;;;11.16;79.66
59686;BME280;45554;51.096;16.976;2023-10-09T12:12:53;100350.36;;;11.18;79.44
59686;BME280;45554;51.096;16.976;2023-10-09T12:15:22;100345.71;;;11.19;79.31
59686;BME280;45554;51.096;16.976;2023-10-09T12:17:50;100338.98;;;11.23;79.23
59686;BME280;45554;51.096;16.976;2023-10-09T12:20:23;100337.09;;;11.32;79.01
59686;BME280;45554;51.096;16.976;2023-10-09T12:22:59;100337.77;;;11.42;78.86
59686;BME280;45554;51.096;16.976;2023-10-09T12:25:27;100333.38;;;11.51;78.75
59686;BME280;45554;51.096;16.976;2023-10-09T12:28:00;100334.06;;;11.58;78.42
59686;BME280;45554;51.096;16.976;2023-10-09T12:30:30;100339.16;;;11.60;78.43
59686;BME280;45554;51.096;16.976;2023-10-09T12:32:58;100335.59;;;11.61;78.08
59686;BME280;45554;51.096;16.976;2023-10-09T12:35:27;100319.55;;;11.56;78.20
59686;BME280;45554;51.096;16.976;2023-10-09T12:38:02;100322.90;;;11.59;78.16
59686;BME280;45554;51.096;16.976;2023-10-09T12:40:31;100323.72;;;11.57;77.78
59686;BME280;45554;51.096;16.976;2023-10-09T12:42:59;100322.52;;;11.54;77.87
59686;BME280;45554;51.096;16.976;2023-10-09T12:45:27;100314.83;;;11.50;77.49
59686;BME280;45554;51.096;16.976;2023-10-09T12:48:00;100316.03;;;11.45;77.28
59686;BME280;45554;51.096;16.976;2023-10-09T12:50:34;100309.70;;;11.38;77.28
59686;BME280;45554;51.096;16.976;2023-10-09T12:53:02;100303.60;;;11.32;77.38
59686;BME280;45554;51.096;16.976;2023-10-09T12:55:38;100306.55;;;11.26;77.54
59686;BME280;45554;51.096;16.976;2023-10-09T12:58:11;100307.66;;;11.22;77.80
59686;BME280;45554;51.096;16.976;2023-10-09T13:00:44;100302.34;;;11.20;77.72
59686;BME280;45554;51.096;16.976;2023-10-09T13:03:17;100302.79;;;11.18;77.68
59686;BME280;45554;51.096;16.976;2023-10-09T13:05:49;100305.97;;;11.15;77.73
59686;BME280;45554;51.096;16.976;2023-10-09T13:08:27;100316.46;;;11.12;77.66
59686;BME280;45554;51.096;16.976;2023-10-09T13:11:05;100322.27;;;11.08;77.67
59686;BME280;45554;51.096;16.976;2023-10-09T13:13:41;100326.30;;;11.05;77.61
59686;BME280;45554;51.096;16.976;2023-10-09T13:16:19;100332.20;;;11.04;77.67
59686;BME280;45554;51.096;16.976;2023-10-09T13:18:57;100333.02;;;11.01;77.85
59686;BME280;45554;51.096;16.976;2023-10-09T13:21:27;100336.61;;;11.03;78.04
59686;BME280;45554;51.096;16.976;2023-10-09T13:24:03;100331.75;;;11.02;77.81
59686;BME280;45554;51.096;16.976;2023-10-09T13:26:30;100331.64;;;10.98;77.45
59686;BME280;45554;51.096;16.976;2023-10-09T13:29:03;100327.05;;;10.89;77.55
59686;BME280;45554;51.096;16.976;2023-10-09T13:31:32;100317.48;;;10.78;77.54
59686;BME280;45554;51.096;16.976;2023-10-09T13:34:04;100312.09;;;10.74;77.86
59686;BME280;45554;51.096;16.976;2023-10-09T13:36:38;100299.00;;;10.73;77.97
59686;BME280;45554;51.096;16.976;2023-10-09T13:39:07;100299.63;;;10.74;78.04
59686;BME280;45554;51.096;16.976;2023-10-09T13:42:15;100299.55;;;10.76;78.26
59686;BME280;45554;51.096;16.976;2023-10-09T13:44:43;100295.68;;;10.76;78.26
59686;BME280;45554;51.096;16.976;2023-10-09T13:47:15;100298.77;;;10.71;77.77
59686;BME280;45554;51.096;16.976;2023-10-09T13:49:53;100299.78;;;10.68;77.83
59686;BME280;45554;51.096;16.976;2023-10-09T13:52:21;100295.52;;;10.66;77.90
59686;BME280;45554;51.096;16.976;2023-10-09T13:54:50;100295.55;;;10.66;77.96